createdAt,value
2022-11-05T00:02:22.347Z,101447.63
2022-11-05T00:05:07.787Z,101443.84
2022-11-05T00:07:56.164Z,101443.91
2022-11-05T00:10:26.807Z,101446.03
2022-11-05T00:13:15.168Z,101442.22
2022-11-05T00:16:00.491Z,101440.16
2022-11-05T00:18:28.249Z,101441.78
2022-11-05T00:20:56.172Z,101451.19
2022-11-05T00:23:41.466Z,101450.81
2022-11-05T00:26:11.404Z,101459.41
2022-11-05T00:28:43.635Z,101463.38
2022-11-05T00:31:13.322Z,101468.09
2022-11-05T00:33:42.414Z,101471.66
2022-11-05T00:36:11.905Z,101472.22
2022-11-05T00:38:39.656Z,101461.75
2022-11-05T00:41:07.874Z,101473.84
2022-11-05T00:43:53.080Z,101477.00
2022-11-05T00:46:23.325Z,101479.28
2022-11-05T00:49:08.316Z,101483.69
2022-11-05T00:51:36.104Z,101482.97
2022-11-05T00:54:03.899Z,101495.78
2022-11-05T00:56:31.699Z,101494.66
2022-11-05T00:58:59.444Z,101501.25
2022-11-05T01:01:28.652Z,101496.59
2022-11-05T01:03:56.419Z,101498.91
2022-11-05T01:06:24.154Z,101512.13
2022-11-05T01:08:51.886Z,101504.81
2022-11-05T01:11:33.987Z,101507.94
2022-11-05T01:14:02.609Z,101503.06
2022-11-05T01:16:32.201Z,101511.25
2022-11-05T01:19:00.621Z,101515.16
2022-11-05T01:21:28.434Z,101518.25
2022-11-05T01:23:56.214Z,101517.13
2022-11-05T01:26:24.080Z,101511.75
2022-11-05T01:28:53.854Z,101516.50
2022-11-05T01:31:22.114Z,101512.22
2022-11-05T01:33:51.743Z,101513.06
2022-11-05T01:36:20.003Z,101519.66
2022-11-05T01:38:47.760Z,101509.63
2022-11-05T01:41:15.540Z,101521.69
2022-11-05T01:43:49.154Z,101523.25
2022-11-05T01:46:20.815Z,101528.66
2022-11-05T01:48:55.198Z,101531.03
2022-11-05T01:51:28.359Z,101533.03
2022-11-05T01:54:01.540Z,101527.59
2022-11-05T01:56:35.948Z,101521.81
2022-11-05T01:59:07.706Z,101515.44
2022-11-05T02:01:35.682Z,101511.19
2022-11-05T02:04:09.732Z,101514.66
2022-11-05T02:06:45.886Z,101511.56
2022-11-05T02:09:19.780Z,101502.69
2022-11-05T02:11:47.940Z,101509.63
2022-11-05T02:14:15.768Z,101501.56
2022-11-05T02:16:50.436Z,101500.81
2022-11-05T02:19:45.584Z,101495.44
2022-11-05T02:22:43.991Z,101493.16
2022-11-05T02:25:33.547Z,101506.34
2022-11-05T02:28:20.849Z,101502.88
2022-11-05T02:30:54.668Z,101492.03
2022-11-05T02:33:40.774Z,101487.44
2022-11-05T02:36:29.611Z,101508.34
2022-11-05T02:39:10.802Z,101498.72
2022-11-05T02:41:47.649Z,101497.97
2022-11-05T02:44:24.975Z,101503.78
2022-11-05T02:46:59.448Z,101500.72
2022-11-05T02:49:40.991Z,101501.88
2022-11-05T02:52:17.328Z,101503.84
2022-11-05T02:54:54.095Z,101499.94
2022-11-05T02:57:23.258Z,101496.09
2022-11-05T03:00:00.792Z,101494.19
2022-11-05T03:02:30.181Z,101489.16
2022-11-05T03:04:58.787Z,101492.28
2022-11-05T03:07:36.467Z,101499.63
2022-11-05T03:10:14.596Z,101491.88
2022-11-05T03:12:53.044Z,101486.50
2022-11-05T03:15:35.311Z,101485.72
2022-11-05T03:18:11.980Z,101485.72
2022-11-05T03:20:45.392Z,101496.19
2022-11-05T03:23:21.119Z,101497.03
2022-11-05T03:25:51.023Z,101493.94
2022-11-05T03:28:23.450Z,101502.53
2022-11-05T03:30:53.505Z,101507.56
2022-11-05T03:33:28.563Z,101499.06
2022-11-05T03:35:59.994Z,101504.47
2022-11-05T03:38:30.522Z,101506.81
2022-11-05T03:41:03.472Z,101506.06
2022-11-05T03:43:36.318Z,101508.03
2022-11-05T03:46:08.796Z,101508.03
2022-11-05T03:48:42.336Z,101510.38
2022-11-05T03:51:17.504Z,101499.56
2022-11-05T03:53:49.262Z,101505.00
2022-11-05T03:56:24.047Z,101512.78
2022-11-05T03:58:58.520Z,101515.88
2022-11-05T04:01:27.000Z,101507.00
2022-11-05T04:03:56.315Z,101522.06
2022-11-05T04:06:41.734Z,101513.56
2022-11-05T04:09:28.802Z,101510.97
2022-11-05T04:12:13.881Z,101517.94
2022-11-05T04:14:41.617Z,101520.34
2022-11-05T04:17:09.830Z,101518.03
2022-11-05T04:19:58.454Z,101518.78
2022-11-05T04:22:45.466Z,101524.56
2022-11-05T04:25:13.840Z,101520.28
2022-11-05T04:27:41.789Z,101522.97
2022-11-05T04:30:18.426Z,101525.22
2022-11-05T04:33:03.875Z,101524.41
2022-11-05T04:35:36.050Z,101526.66
2022-11-05T04:38:05.062Z,101520.41
2022-11-05T04:40:33.107Z,101526.94
2022-11-05T04:43:01.615Z,101524.56
2022-11-05T04:45:30.921Z,101529.53
2022-11-05T04:47:58.837Z,101522.94
2022-11-05T04:50:26.815Z,101533.00
2022-11-05T04:52:56.072Z,101537.97
2022-11-05T04:55:23.976Z,101538.34
2022-11-05T04:57:53.155Z,101537.94
2022-11-05T05:00:22.837Z,101540.66
2022-11-05T05:02:50.661Z,101537.88
2022-11-05T05:05:18.786Z,101540.56
2022-11-05T05:07:46.520Z,101534.31
2022-11-05T05:10:15.647Z,101540.06
2022-11-05T05:12:43.390Z,101536.88
2022-11-05T05:15:11.110Z,101541.88
2022-11-05T05:17:38.878Z,101536.84
2022-11-05T05:20:24.956Z,101540.28
2022-11-05T05:22:53.958Z,101543.00
2022-11-05T05:25:23.879Z,101546.09
2022-11-05T05:27:51.710Z,101537.94
2022-11-05T05:30:19.741Z,101548.44
2022-11-05T05:32:47.477Z,101536.84
2022-11-05T05:35:15.353Z,101534.94
2022-11-05T05:37:44.186Z,101535.03
2022-11-05T05:40:12.559Z,101532.72
2022-11-05T05:42:43.322Z,101543.25
2022-11-05T05:45:12.545Z,101549.53
2022-11-05T05:47:40.393Z,101546.81
2022-11-05T05:50:08.493Z,101548.38
2022-11-05T05:52:36.198Z,101552.63
2022-11-05T05:55:03.985Z,101553.34
2022-11-05T05:57:31.681Z,101554.94
2022-11-05T06:00:01.887Z,101555.25
2022-11-05T06:02:39.466Z,101559.88
2022-11-05T06:05:07.626Z,101565.31
2022-11-05T06:07:37.459Z,101563.41
2022-11-05T06:10:06.258Z,101563.81
2022-11-05T06:12:34.546Z,101564.97
2022-11-05T06:15:04.090Z,101567.75
2022-11-05T06:17:31.915Z,101572.03
2022-11-05T06:19:59.608Z,101573.56
2022-11-05T06:22:27.341Z,101573.97
2022-11-05T06:24:55.092Z,101577.84
2022-11-05T06:27:22.871Z,101576.72
2022-11-05T06:29:50.604Z,101576.34
2022-11-05T06:32:19.689Z,101573.28
2022-11-05T06:34:47.455Z,101572.50
2022-11-05T06:37:15.221Z,101571.75
2022-11-05T06:39:42.972Z,101577.53
2022-11-05T06:42:18.967Z,101585.63
2022-11-05T06:44:48.307Z,101578.63
2022-11-05T06:47:16.068Z,101580.09
2022-11-05T06:49:45.133Z,101577.31
2022-11-05T06:52:13.000Z,101581.47
2022-11-05T06:54:42.203Z,101581.00
2022-11-05T06:57:10.922Z,101596.41
2022-11-05T06:59:39.375Z,101584.00
2022-11-05T07:02:07.864Z,101592.81
2022-11-05T07:04:35.685Z,101597.78
2022-11-05T07:07:04.837Z,101598.50
2022-11-05T07:09:32.508Z,101605.44
2022-11-05T07:12:00.278Z,101608.88
2022-11-05T07:14:27.990Z,101608.81
2022-11-05T07:16:57.459Z,101610.28
2022-11-05T07:19:25.193Z,101609.06
2022-11-05T07:21:52.911Z,101615.59
2022-11-05T07:24:21.986Z,101611.66
2022-11-05T07:26:49.693Z,101609.31
2022-11-05T07:29:17.427Z,101612.56
2022-11-05T07:31:46.447Z,101611.00
2022-11-05T07:34:14.227Z,101611.38
2022-11-05T07:36:41.937Z,101607.81
2022-11-05T07:39:09.896Z,101615.94
2022-11-05T07:41:38.979Z,101615.06
2022-11-05T07:44:06.884Z,101620.03
2022-11-05T07:46:34.820Z,101614.94
2022-11-05T07:49:02.590Z,101616.84
2022-11-05T07:51:30.312Z,101623.44
2022-11-05T07:53:58.016Z,101622.97
2022-11-05T07:56:25.771Z,101622.88
2022-11-05T07:58:54.875Z,101618.44
2022-11-05T08:01:22.969Z,101628.03
2022-11-05T08:03:50.765Z,101627.06
2022-11-05T08:06:18.482Z,101626.06
2022-11-05T08:08:46.271Z,101623.22
2022-11-05T08:11:14.024Z,101625.53
2022-11-05T08:13:42.756Z,101622.19
2022-11-05T08:16:11.848Z,101626.53
2022-11-05T08:18:39.578Z,101632.34
2022-11-05T08:21:08.906Z,101624.84
2022-11-05T08:23:36.774Z,101625.03
2022-11-05T08:26:05.033Z,101619.66
2022-11-05T08:28:32.847Z,101621.84
2022-11-05T08:31:00.623Z,101627.59
2022-11-05T08:33:31.306Z,101622.38
2022-11-05T08:36:03.221Z,101621.94
2022-11-05T08:38:31.037Z,101617.44
2022-11-05T08:40:59.279Z,101630.00
2022-11-05T08:43:27.355Z,101627.44
2022-11-05T08:45:55.255Z,101619.53
2022-11-05T08:48:23.278Z,101630.00
2022-11-05T08:50:52.364Z,101626.19
2022-11-05T08:53:20.218Z,101636.94
2022-11-05T08:55:50.049Z,101628.28
2022-11-05T08:58:18.229Z,101630.13
2022-11-05T09:00:47.959Z,101634.13
2022-11-05T09:03:16.064Z,101637.19
2022-11-05T09:05:44.158Z,101636.44
2022-11-05T09:08:15.314Z,101637.19
2022-11-05T09:10:43.684Z,101637.13
2022-11-05T09:13:17.817Z,101634.41
2022-11-05T09:15:46.485Z,101629.44
2022-11-05T09:18:15.470Z,101628.34
2022-11-05T09:20:43.306Z,101623.94
2022-11-05T09:23:15.067Z,101620.31
2022-11-05T09:25:43.048Z,101627.19
2022-11-05T09:28:16.481Z,101623.81
2022-11-05T09:30:46.248Z,101625.06
2022-11-05T09:33:14.544Z,101623.66
2022-11-05T09:35:42.948Z,101622.25
2022-11-05T09:38:10.748Z,101634.13
2022-11-05T09:40:45.055Z,101626.34
2022-11-05T09:43:19.888Z,101644.59
2022-11-05T09:45:51.382Z,101639.78
2022-11-05T09:48:21.484Z,101646.94
2022-11-05T09:50:50.055Z,101641.78
2022-11-05T09:53:20.187Z,101635.84
2022-11-05T09:55:52.397Z,101642.56
2022-11-05T09:58:28.716Z,101641.81
2022-11-05T10:00:58.168Z,101647.47
2022-11-05T10:03:29.950Z,101655.19
2022-11-05T10:06:08.818Z,101648.16
2022-11-05T10:08:41.590Z,101664.47
2022-11-05T10:11:17.286Z,101650.00
2022-11-05T10:13:48.265Z,101657.06
2022-11-05T10:16:24.737Z,101646.97
2022-11-05T10:18:56.216Z,101656.69
2022-11-05T10:21:44.284Z,101654.00
2022-11-05T10:24:15.602Z,101659.72
2022-11-05T10:26:48.458Z,101663.22
2022-11-05T10:29:23.652Z,101655.81
2022-11-05T10:31:53.999Z,101666.50
2022-11-05T10:34:23.897Z,101668.63
2022-11-05T10:36:51.668Z,101667.88
2022-11-05T10:39:20.919Z,101663.63
2022-11-05T10:42:02.121Z,101669.19
2022-11-05T10:44:36.047Z,101667.06
2022-11-05T10:47:16.373Z,101666.91
2022-11-05T10:49:54.922Z,101664.56
2022-11-05T10:52:25.747Z,101665.06
2022-11-05T10:54:58.147Z,101667.91
2022-11-05T10:57:33.454Z,101660.28
2022-11-05T11:00:28.306Z,101663.00
2022-11-05T11:02:57.907Z,101670.00
2022-11-05T11:05:29.568Z,101670.78
2022-11-05T11:08:02.316Z,101664.97
2022-11-05T11:10:33.255Z,101667.50
2022-11-05T11:13:03.067Z,101662.28
2022-11-05T11:15:32.664Z,101667.25
2022-11-05T11:18:26.022Z,101672.06
2022-11-05T11:20:53.851Z,101658.03
2022-11-05T11:23:21.647Z,101666.09
2022-11-05T11:25:53.763Z,101664.28
2022-11-05T11:28:25.548Z,101659.03
2022-11-05T11:31:05.186Z,101663.63
2022-11-05T11:33:34.679Z,101668.13
2022-11-05T11:36:02.434Z,101663.53
2022-11-05T11:38:31.722Z,101662.22
2022-11-05T11:41:25.537Z,101658.06
2022-11-05T11:43:58.167Z,101668.59
2022-11-05T11:46:26.741Z,101669.34
2022-11-05T11:48:54.456Z,101665.19
2022-11-05T11:51:31.775Z,101660.78
2022-11-05T11:54:00.853Z,101660.22
2022-11-05T11:56:30.300Z,101656.88
2022-11-05T11:59:03.958Z,101650.41
2022-11-05T12:02:13.711Z,101646.59
2022-11-05T12:05:03.264Z,101650.69
2022-11-05T12:07:45.953Z,101642.47
2022-11-05T12:10:29.437Z,101645.31
2022-11-05T12:13:22.528Z,101649.41
2022-11-05T12:15:54.597Z,101647.31
2022-11-05T12:18:35.021Z,101654.56
2022-11-05T12:21:34.644Z,101647.34
2022-11-05T12:24:24.480Z,101656.78
2022-11-05T12:27:05.746Z,101644.19
2022-11-05T12:29:45.379Z,101647.47
2022-11-05T12:32:49.631Z,101637.94
2022-11-05T12:35:34.982Z,101628.50
2022-11-05T12:38:13.632Z,101626.25
2022-11-05T12:40:59.063Z,101630.84
2022-11-05T12:43:37.139Z,101627.47
2022-11-05T12:46:15.250Z,101623.06
2022-11-05T12:49:24.150Z,101617.88
2022-11-05T12:52:07.940Z,101624.44
2022-11-05T12:54:50.952Z,101621.06
2022-11-05T12:57:19.166Z,101619.69
2022-11-05T12:59:52.664Z,101613.44
2022-11-05T13:02:27.202Z,101614.63
2022-11-05T13:05:00.686Z,101617.81
2022-11-05T13:07:30.949Z,101616.69
2022-11-05T13:10:03.661Z,101604.22
2022-11-05T13:12:34.627Z,101612.88
2022-11-05T13:15:07.295Z,101593.56
2022-11-05T13:17:46.517Z,101601.50
2022-11-05T13:20:21.289Z,101597.38
2022-11-05T13:22:52.562Z,101580.19
2022-11-05T13:25:24.032Z,101585.22
2022-11-05T13:27:57.529Z,101567.69
2022-11-05T13:30:29.219Z,101571.91
2022-11-05T13:33:03.037Z,101564.75
2022-11-05T13:35:36.951Z,101562.78
2022-11-05T13:38:27.445Z,101558.03
2022-11-05T13:41:13.312Z,101571.72
2022-11-05T13:44:02.229Z,101571.75
2022-11-05T13:46:36.364Z,101570.88
2022-11-05T13:49:39.899Z,101561.94
2022-11-05T13:52:30.656Z,101567.13
2022-11-05T13:55:19.039Z,101563.00
2022-11-05T13:58:10.691Z,101559.31
2022-11-05T14:00:44.633Z,101555.06
2022-11-05T14:03:19.611Z,101569.16
2022-11-05T14:05:55.045Z,101574.00
2022-11-05T14:08:28.054Z,101570.44
2022-11-05T14:11:02.694Z,101573.94
2022-11-05T14:13:35.694Z,101577.75
2022-11-05T14:16:06.866Z,101578.19
2022-11-05T14:18:43.548Z,101579.41
2022-11-05T14:21:49.159Z,101582.47
2022-11-05T14:24:27.055Z,101582.25
2022-11-05T14:27:39.545Z,101579.03
2022-11-05T14:30:55.200Z,101575.97
2022-11-05T14:33:34.415Z,101577.19
2022-11-05T14:36:29.489Z,101578.53
2022-11-05T14:39:04.604Z,101574.97
2022-11-05T14:41:56.507Z,101571.56
2022-11-05T14:44:25.367Z,101577.94
2022-11-05T14:46:55.921Z,101575.00
2022-11-05T14:49:27.867Z,101574.34
2022-11-05T14:51:57.867Z,101573.53
2022-11-05T14:54:30.477Z,101565.25
2022-11-05T14:57:02.467Z,101575.09
2022-11-05T14:59:53.988Z,101565.19
2022-11-05T15:02:26.319Z,101568.94
2022-11-05T15:05:38.292Z,101568.94
2022-11-05T15:08:37.167Z,101581.72
2022-11-05T15:11:17.231Z,101577.78
2022-11-05T15:13:59.473Z,101574.28
2022-11-05T15:16:32.292Z,101568.81
2022-11-05T15:19:01.246Z,101571.53
2022-11-05T15:21:32.707Z,101573.09
2022-11-05T15:24:02.889Z,101569.25
2022-11-05T15:26:39.363Z,101563.50
2022-11-05T15:29:18.769Z,101559.34
2022-11-05T15:31:47.788Z,101566.91
2022-11-05T15:34:22.856Z,101561.22
2022-11-05T15:36:53.405Z,101560.13
2022-11-05T15:39:43.225Z,101556.88
2022-11-05T15:42:14.644Z,101546.72
2022-11-05T15:44:45.794Z,101554.16
2022-11-05T15:47:16.857Z,101546.41
2022-11-05T15:49:45.619Z,101545.63
2022-11-05T15:52:18.208Z,101549.91
2022-11-05T15:54:46.098Z,101542.91
2022-11-05T15:57:31.938Z,101540.75
2022-11-05T16:00:05.523Z,101542.72
2022-11-05T16:02:35.998Z,101542.72
2022-11-05T16:05:10.474Z,101546.31
2022-11-05T16:07:43.030Z,101544.16
2022-11-05T16:10:19.699Z,101544.16
2022-11-05T16:12:47.606Z,101546.13
2022-11-05T16:15:23.484Z,101542.88
2022-11-05T16:17:54.803Z,101544.94
2022-11-05T16:20:29.388Z,101542.97
2022-11-05T16:22:59.751Z,101536.75
2022-11-05T16:25:47.206Z,101540.81
2022-11-05T16:28:23.107Z,101527.91
2022-11-05T16:30:57.396Z,101521.69
2022-11-05T16:33:27.337Z,101522.03
2022-11-05T16:35:55.100Z,101522.44
2022-11-05T16:38:22.995Z,101516.38
2022-11-05T16:40:50.963Z,101519.75
2022-11-05T16:43:20.979Z,101520.09
2022-11-05T16:45:48.766Z,101530.22
2022-11-05T16:48:17.904Z,101525.97
2022-11-05T16:50:46.427Z,101517.88
2022-11-05T16:53:14.444Z,101525.31
2022-11-05T16:55:44.815Z,101526.53
2022-11-05T16:58:20.298Z,101530.34
2022-11-05T17:00:49.107Z,101535.38
2022-11-05T17:03:18.369Z,101538.22
2022-11-05T17:05:46.504Z,101528.81
2022-11-05T17:08:14.655Z,101531.25
2022-11-05T17:10:42.716Z,101525.78
2022-11-05T17:13:13.993Z,101529.69
2022-11-05T17:15:44.051Z,101524.38
2022-11-05T17:18:17.951Z,101530.25
2022-11-05T17:20:49.593Z,101522.06
2022-11-05T17:23:19.302Z,101519.66
2022-11-05T17:25:50.524Z,101529.03
2022-11-05T17:28:19.157Z,101526.31
2022-11-05T17:30:52.331Z,101524.44
2022-11-05T17:33:21.441Z,101529.50
2022-11-05T17:35:51.048Z,101520.19
2022-11-05T17:38:19.229Z,101523.69
2022-11-05T17:40:47.222Z,101518.97
2022-11-05T17:43:15.812Z,101533.84
2022-11-05T17:45:45.203Z,101539.28
2022-11-05T17:48:13.474Z,101535.78
2022-11-05T17:50:42.446Z,101541.69
2022-11-05T17:53:12.974Z,101547.16
2022-11-05T17:55:41.633Z,101551.41
2022-11-05T17:58:09.632Z,101561.88
2022-11-05T18:00:37.592Z,101549.13
2022-11-05T18:03:05.728Z,101557.63
2022-11-05T18:05:35.291Z,101556.84
2022-11-05T18:08:03.341Z,101565.03
2022-11-05T18:10:32.784Z,101554.25
2022-11-05T18:13:00.534Z,101552.84
2022-11-05T18:15:28.271Z,101546.63
2022-11-05T18:17:56.015Z,101538.44
2022-11-05T18:20:24.006Z,101533.28
2022-11-05T18:22:52.446Z,101542.34
2022-11-05T18:25:20.293Z,101542.03
2022-11-05T18:27:49.416Z,101530.44
2022-11-05T18:30:17.184Z,101522.72
2022-11-05T18:32:45.903Z,101523.91
2022-11-05T18:35:14.455Z,101519.66
2022-11-05T18:37:42.739Z,101518.09
2022-11-05T18:40:11.725Z,101517.81
2022-11-05T18:42:39.782Z,101526.00
2022-11-05T18:45:10.636Z,101514.75
2022-11-05T18:47:38.450Z,101519.88
2022-11-05T18:50:10.435Z,101515.94
2022-11-05T18:52:38.317Z,101506.66
2022-11-05T18:55:07.118Z,101512.88
2022-11-05T18:57:35.298Z,101508.22
2022-11-05T19:00:03.668Z,101517.47
2022-11-05T19:02:33.276Z,101504.16
2022-11-05T19:05:27.278Z,101503.38
2022-11-05T19:07:48.829Z,101492.78
2022-11-05T19:10:16.612Z,101487.34
2022-11-05T19:12:44.340Z,101488.88
2022-11-05T19:15:12.735Z,101498.25
2022-11-05T19:17:41.869Z,101497.81
2022-11-05T19:20:10.287Z,101490.41
2022-11-05T19:22:38.126Z,101476.75
2022-11-05T19:25:07.001Z,101460.72
2022-11-05T19:27:36.050Z,101447.50
2022-11-05T19:30:04.375Z,101451.13
2022-11-05T19:32:32.348Z,101453.50
2022-11-05T19:35:01.451Z,101445.78
2022-11-05T19:37:29.216Z,101453.31
2022-11-05T19:39:56.939Z,101446.44
2022-11-05T19:42:24.696Z,101449.59
2022-11-05T19:44:52.417Z,101463.25
2022-11-05T19:47:20.165Z,101453.53
2022-11-05T19:49:47.903Z,101451.56
2022-11-05T19:52:17.019Z,101457.78
2022-11-05T19:54:46.000Z,101459.31
2022-11-05T19:57:13.883Z,101450.69
2022-11-05T19:59:41.684Z,101448.41
2022-11-05T20:02:15.841Z,101463.25
2022-11-05T20:04:44.130Z,101463.13
2022-11-05T20:07:11.904Z,101449.03
2022-11-05T20:09:41.221Z,101457.22
2022-11-05T20:12:09.092Z,101460.41
2022-11-05T20:14:36.979Z,101457.34
2022-11-05T20:17:04.776Z,101460.09
2022-11-05T20:19:33.515Z,101445.34
2022-11-05T20:22:01.653Z,101445.03
2022-11-05T20:24:29.741Z,101451.38
2022-11-05T20:26:58.839Z,101448.75
2022-11-05T20:29:33.800Z,101449.16
2022-11-05T20:32:03.710Z,101453.09
2022-11-05T20:34:32.845Z,101439.91
2022-11-05T20:37:00.682Z,101457.34
2022-11-05T20:39:29.369Z,101438.25
2022-11-05T20:42:00.429Z,101440.66
2022-11-05T20:44:28.208Z,101440.34
2022-11-05T20:46:56.664Z,101436.84
2022-11-05T20:49:25.855Z,101442.75
2022-11-05T20:51:53.991Z,101440.56
2022-11-05T20:54:21.852Z,101436.97
2022-11-05T20:56:49.677Z,101435.75
2022-11-05T20:59:19.415Z,101430.75
2022-11-05T21:01:47.376Z,101436.97
2022-11-05T21:04:17.890Z,101450.28
2022-11-05T21:06:47.748Z,101446.13
2022-11-05T21:09:15.545Z,101448.53
2022-11-05T21:12:00.920Z,101452.13
2022-11-05T21:14:30.048Z,101444.50
2022-11-05T21:16:57.787Z,101448.06
2022-11-05T21:19:25.540Z,101445.13
2022-11-05T21:21:53.260Z,101438.69
2022-11-05T21:24:21.030Z,101437.50
2022-11-05T21:26:49.917Z,101443.38
2022-11-05T21:29:18.136Z,101435.19
2022-11-05T21:31:47.581Z,101435.19
2022-11-05T21:34:15.815Z,101454.69
2022-11-05T21:36:43.747Z,101448.94
2022-11-05T21:39:13.748Z,101439.97
2022-11-05T21:41:42.608Z,101454.69
2022-11-05T21:44:10.670Z,101441.06
2022-11-05T21:46:38.760Z,101431.72
2022-11-05T21:49:07.881Z,101431.81
2022-11-05T21:51:53.041Z,101426.69
2022-11-05T21:54:38.382Z,101425.19
2022-11-05T21:57:23.973Z,101420.06
2022-11-05T21:59:55.064Z,101418.31
2022-11-05T22:02:24.189Z,101427.56
2022-11-05T22:04:54.792Z,101416.25
2022-11-05T22:07:24.821Z,101421.69
2022-11-05T22:09:52.816Z,101409.56
2022-11-05T22:12:20.736Z,101425.16
2022-11-05T22:14:48.523Z,101425.09
2022-11-05T22:17:16.459Z,101419.97
2022-11-05T22:19:44.286Z,101416.34
2022-11-05T22:22:14.083Z,101414.38
2022-11-05T22:24:42.978Z,101412.88
2022-11-05T22:27:14.730Z,101403.16
2022-11-05T22:29:42.991Z,101407.09
2022-11-05T22:32:10.991Z,101392.03
2022-11-05T22:34:38.831Z,101382.78
2022-11-05T22:37:06.935Z,101375.44
2022-11-05T22:39:36.029Z,101378.19
2022-11-05T22:42:08.253Z,101377.75
2022-11-05T22:44:37.096Z,101393.69
2022-11-05T22:47:05.422Z,101394.75
2022-11-05T22:49:33.920Z,101381.13
2022-11-05T22:52:01.717Z,101394.34
2022-11-05T22:54:29.474Z,101401.31
2022-11-05T22:56:58.592Z,101393.47
2022-11-05T22:59:26.503Z,101384.94
2022-11-05T23:01:54.375Z,101390.72
2022-11-05T23:04:22.234Z,101390.28
2022-11-05T23:07:07.321Z,101383.31
2022-11-05T23:09:53.643Z,101380.16
2022-11-05T23:12:27.094Z,101370.75
2022-11-05T23:14:56.466Z,101367.72
2022-11-05T23:17:42.629Z,101361.94
2022-11-05T23:20:31.495Z,101363.13
2022-11-05T23:23:17.212Z,101368.16
2022-11-05T23:25:45.127Z,101353.00
2022-11-05T23:28:15.072Z,101363.25
2022-11-05T23:30:58.847Z,101359.00
2022-11-05T23:33:26.578Z,101357.16
2022-11-05T23:36:11.785Z,101350.63
2022-11-05T23:38:40.190Z,101342.13
2022-11-05T23:41:25.969Z,101359.31
2022-11-05T23:44:12.713Z,101353.88
2022-11-05T23:46:58.001Z,101364.75
2022-11-05T23:49:25.791Z,101365.78
2022-11-05T23:51:53.547Z,101374.03
2022-11-05T23:54:21.903Z,101357.69
2022-11-05T23:56:49.627Z,101348.75
2022-11-05T23:59:18.754Z,101352.34
